Wetter & Webcam

Wetterdaten Diepholz (ETND)

METAR
Data not available. Military Control Zone (MCTR) is not permanently active (HX).

Sunrise (SR) / Sunset (SS)
03:21 / 19:24 UTC

Wetterdaten Bremen (EDDW)

METAR
METAR text: EDDW 201120Z 08010KT 050V110 CAVOK 22/01 Q1024 NOSIG Conditions at: EDDW (BREMEN , DE) observed 1120 UTC 20 May 2018 Temperature: 22.0°C (72°F) Dewpoint: 1.0°C (34°F) [RH = 25%] Pressure (altimeter): 30.24 inches Hg (1024.0 mb) Winds: from the E (80 degrees) at 12 MPH (10 knots; 5.2 m/s) Visibility: 6 or more miles (10+ km) Ceiling: ceiling and visibility are OK Clouds: unknown Weather: no significant weather observed at this time

Copyright © 2017 Flugplatz Diepholz-Dümmerland

© 2017 Flugplatz Diepholz-Dümmerland